sensor_id;sensor_type;location;lat;lon;timestamp;pressure;altitude;pressure_sealevel;temperature;humidity
33506;BME280;19843;51.040;13.782;2023-05-23T00:01:03;99909.13;;;17.98;70.52
33506;BME280;19843;51.040;13.782;2023-05-23T00:03:32;99898.25;;;17.85;71.51
33506;BME280;19843;51.040;13.782;2023-05-23T00:06:01;99897.41;;;17.85;70.88
33506;BME280;19843;51.040;13.782;2023-05-23T00:08:29;99907.13;;;18.02;70.05
33506;BME280;19843;51.040;13.782;2023-05-23T00:10:57;99899.84;;;18.26;69.83
33506;BME280;19843;51.040;13.782;2023-05-23T00:13:24;99893.78;;;18.38;69.21
33506;BME280;19843;51.040;13.782;2023-05-23T00:15:52;99887.69;;;18.47;69.06
33506;BME280;19843;51.040;13.782;2023-05-23T00:18:19;99898.19;;;18.53;68.17
33506;BME280;19843;51.040;13.782;2023-05-23T00:20:47;99892.13;;;18.55;67.83
33506;BME280;19843;51.040;13.782;2023-05-23T00:23:16;99890.94;;;18.52;67.17
33506;BME280;19843;51.040;13.782;2023-05-23T00:25:46;99901.41;;;18.62;68.14
33506;BME280;19843;51.040;13.782;2023-05-23T00:28:19;99902.28;;;18.38;69.78
33506;BME280;19843;51.040;13.782;2023-05-23T00:30:47;99907.53;;;18.25;69.86
33506;BME280;19843;51.040;13.782;2023-05-23T00:33:15;99920.41;;;18.44;70.67
33506;BME280;19843;51.040;13.782;2023-05-23T00:35:43;99934.13;;;18.49;71.18
33506;BME280;19843;51.040;13.782;2023-05-23T00:38:10;99938.72;;;17.06;88.89
33506;BME280;19843;51.040;13.782;2023-05-23T00:40:39;99953.66;;;17.17;94.50
33506;BME280;19843;51.040;13.782;2023-05-23T00:43:06;99931.50;;;16.43;100.00
33506;BME280;19843;51.040;13.782;2023-05-23T00:45:34;99933.78;;;16.88;100.00
33506;BME280;19843;51.040;13.782;2023-05-23T00:48:03;99933.91;;;17.13;100.00
33506;BME280;19843;51.040;13.782;2023-05-23T00:50:31;99939.19;;;17.26;100.00
33506;BME280;19843;51.040;13.782;2023-05-23T00:52:59;99947.25;;;17.24;100.00
33506;BME280;19843;51.040;13.782;2023-05-23T00:55:28;99939.91;;;17.01;100.00
33506;BME280;19843;51.040;13.782;2023-05-23T00:57:57;99917.22;;;16.73;100.00
33506;BME280;19843;51.040;13.782;2023-05-23T01:00:25;99914.16;;;17.06;100.00
33506;BME280;19843;51.040;13.782;2023-05-23T01:02:53;99926.69;;;17.20;100.00
33506;BME280;19843;51.040;13.782;2023-05-23T01:05:21;99925.97;;;16.64;100.00
33506;BME280;19843;51.040;13.782;2023-05-23T01:07:50;99915.53;;;16.68;100.00
33506;BME280;19843;51.040;13.782;2023-05-23T01:10:20;99896.09;;;16.49;100.00
33506;BME280;19843;51.040;13.782;2023-05-23T01:13:02;99898.50;;;16.47;100.00
33506;BME280;19843;51.040;13.782;2023-05-23T01:15:37;99903.94;;;16.80;100.00
33506;BME280;19843;51.040;13.782;2023-05-23T01:18:09;99917.34;;;17.01;100.00
33506;BME280;19843;51.040;13.782;2023-05-23T01:20:42;99930.28;;;17.17;100.00
33506;BME280;19843;51.040;13.782;2023-05-23T01:23:34;99922.97;;;16.98;100.00
33506;BME280;19843;51.040;13.782;2023-05-23T01:26:17;99913.75;;;17.08;100.00
33506;BME280;19843;51.040;13.782;2023-05-23T01:28:54;99900.84;;;17.00;100.00
33506;BME280;19843;51.040;13.782;2023-05-23T01:31:23;99919.41;;;17.11;100.00
33506;BME280;19843;51.040;13.782;2023-05-23T01:33:54;99932.50;;;16.72;100.00
33506;BME280;19843;51.040;13.782;2023-05-23T01:36:22;99941.38;;;16.74;100.00
33506;BME280;19843;51.040;13.782;2023-05-23T01:38:49;99947.50;;;16.86;100.00
33506;BME280;19843;51.040;13.782;2023-05-23T01:41:17;99947.97;;;17.06;100.00
33506;BME280;19843;51.040;13.782;2023-05-23T01:43:45;99945.94;;;17.00;100.00
33506;BME280;19843;51.040;13.782;2023-05-23T01:46:15;99947.84;;;16.78;100.00
33506;BME280;19843;51.040;13.782;2023-05-23T01:48:43;99949.56;;;17.00;100.00
33506;BME280;19843;51.040;13.782;2023-05-23T01:51:12;99956.41;;;16.99;100.00
33506;BME280;19843;51.040;13.782;2023-05-23T01:53:40;99954.81;;;17.09;100.00
33506;BME280;19843;51.040;13.782;2023-05-23T01:56:08;99951.44;;;16.75;100.00
33506;BME280;19843;51.040;13.782;2023-05-23T01:58:36;99934.19;;;16.87;100.00
33506;BME280;19843;51.040;13.782;2023-05-23T02:01:03;99925.53;;;16.58;100.00
33506;BME280;19843;51.040;13.782;2023-05-23T02:03:32;99921.56;;;16.63;100.00
33506;BME280;19843;51.040;13.782;2023-05-23T02:06:00;99918.91;;;16.33;100.00
33506;BME280;19843;51.040;13.782;2023-05-23T02:08:28;99924.88;;;16.21;100.00
33506;BME280;19843;51.040;13.782;2023-05-23T02:10:55;99923.84;;;16.43;100.00
33506;BME280;19843;51.040;13.782;2023-05-23T02:13:23;99921.50;;;16.56;100.00
33506;BME280;19843;51.040;13.782;2023-05-23T02:15:50;99923.13;;;16.57;100.00
33506;BME280;19843;51.040;13.782;2023-05-23T02:18:19;99912.81;;;16.20;100.00
33506;BME280;19843;51.040;13.782;2023-05-23T02:20:48;99918.94;;;16.36;100.00
33506;BME280;19843;51.040;13.782;2023-05-23T02:23:15;99906.09;;;16.39;100.00
33506;BME280;19843;51.040;13.782;2023-05-23T02:25:43;99894.75;;;16.28;100.00
33506;BME280;19843;51.040;13.782;2023-05-23T02:28:10;99890.03;;;16.43;100.00
33506;BME280;19843;51.040;13.782;2023-05-23T02:30:38;99891.19;;;16.35;100.00
33506;BME280;19843;51.040;13.782;2023-05-23T02:33:06;99883.81;;;16.16;100.00
33506;BME280;19843;51.040;13.782;2023-05-23T02:35:34;99885.97;;;16.41;100.00
33506;BME280;19843;51.040;13.782;2023-05-23T02:38:03;99885.91;;;16.30;100.00
33506;BME280;19843;51.040;13.782;2023-05-23T02:40:30;99873.06;;;16.36;100.00
33506;BME280;19843;51.040;13.782;2023-05-23T02:42:58;99864.63;;;16.36;100.00
33506;BME280;19843;51.040;13.782;2023-05-23T02:45:26;99860.53;;;16.26;100.00
33506;BME280;19843;51.040;13.782;2023-05-23T02:47:53;99851.78;;;16.38;100.00
33506;BME280;19843;51.040;13.782;2023-05-23T02:50:21;99850.53;;;16.36;100.00
33506;BME280;19843;51.040;13.782;2023-05-23T02:52:48;99847.63;;;16.22;100.00
33506;BME280;19843;51.040;13.782;2023-05-23T02:55:17;99859.06;;;16.50;100.00
33506;BME280;19843;51.040;13.782;2023-05-23T02:57:44;99867.03;;;16.37;100.00
33506;BME280;19843;51.040;13.782;2023-05-23T03:00:13;99853.84;;;16.49;100.00
33506;BME280;19843;51.040;13.782;2023-05-23T03:02:40;99849.34;;;16.33;100.00
33506;BME280;19843;51.040;13.782;2023-05-23T03:05:08;99841.78;;;16.55;100.00
33506;BME280;19843;51.040;13.782;2023-05-23T03:07:36;99837.44;;;16.69;100.00
33506;BME280;19843;51.040;13.782;2023-05-23T03:10:04;99837.88;;;16.74;100.00
33506;BME280;19843;51.040;13.782;2023-05-23T03:12:33;99838.31;;;16.76;100.00
33506;BME280;19843;51.040;13.782;2023-05-23T03:15:02;99837.41;;;16.58;100.00
33506;BME280;19843;51.040;13.782;2023-05-23T03:17:30;99832.97;;;16.57;100.00
33506;BME280;19843;51.040;13.782;2023-05-23T03:19:58;99824.91;;;16.59;100.00
33506;BME280;19843;51.040;13.782;2023-05-23T03:22:25;99830.22;;;16.71;100.00
33506;BME280;19843;51.040;13.782;2023-05-23T03:24:53;99825.00;;;16.73;100.00
33506;BME280;19843;51.040;13.782;2023-05-23T03:27:21;99824.97;;;16.70;100.00
33506;BME280;19843;51.040;13.782;2023-05-23T03:29:50;99828.69;;;16.19;100.00
33506;BME280;19843;51.040;13.782;2023-05-23T03:32:17;99821.09;;;16.19;100.00
33506;BME280;19843;51.040;13.782;2023-05-23T03:34:45;99816.53;;;16.04;100.00
33506;BME280;19843;51.040;13.782;2023-05-23T03:37:13;99820.31;;;16.26;100.00
33506;BME280;19843;51.040;13.782;2023-05-23T03:39:40;99815.22;;;16.53;100.00
33506;BME280;19843;51.040;13.782;2023-05-23T03:42:08;99813.66;;;16.62;100.00
33506;BME280;19843;51.040;13.782;2023-05-23T03:44:35;99813.31;;;16.71;100.00
33506;BME280;19843;51.040;13.782;2023-05-23T03:47:04;99816.97;;;16.72;100.00
33506;BME280;19843;51.040;13.782;2023-05-23T03:49:32;99815.00;;;16.86;100.00
33506;BME280;19843;51.040;13.782;2023-05-23T03:52:00;99806.94;;;16.81;100.00
33506;BME280;19843;51.040;13.782;2023-05-23T03:54:27;99812.97;;;16.87;100.00
33506;BME280;19843;51.040;13.782;2023-05-23T03:56:55;99821.84;;;16.85;100.00
33506;BME280;19843;51.040;13.782;2023-05-23T03:59:23;99830.28;;;16.82;100.00
33506;BME280;19843;51.040;13.782;2023-05-23T04:01:50;99825.00;;;16.73;100.00
33506;BME280;19843;51.040;13.782;2023-05-23T04:04:19;99838.28;;;16.73;100.00
33506;BME280;19843;51.040;13.782;2023-05-23T04:06:47;99834.19;;;16.63;100.00
33506;BME280;19843;51.040;13.782;2023-05-23T04:09:14;99837.59;;;16.21;100.00
33506;BME280;19843;51.040;13.782;2023-05-23T04:11:42;99844.38;;;16.16;100.00
33506;BME280;19843;51.040;13.782;2023-05-23T04:14:10;99852.16;;;16.37;100.00
33506;BME280;19843;51.040;13.782;2023-05-23T04:16:39;99862.69;;;15.88;100.00
33506;BME280;19843;51.040;13.782;2023-05-23T04:19:08;99859.63;;;16.11;100.00
33506;BME280;19843;51.040;13.782;2023-05-23T04:21:37;99850.59;;;16.47;100.00
33506;BME280;19843;51.040;13.782;2023-05-23T04:24:05;99855.94;;;16.66;100.00
33506;BME280;19843;51.040;13.782;2023-05-23T04:26:33;99867.97;;;15.97;100.00
33506;BME280;19843;51.040;13.782;2023-05-23T04:29:02;99868.47;;;16.06;100.00
33506;BME280;19843;51.040;13.782;2023-05-23T04:31:29;99874.41;;;16.56;100.00
33506;BME280;19843;51.040;13.782;2023-05-23T04:33:59;99874.41;;;16.53;100.00
33506;BME280;19843;51.040;13.782;2023-05-23T04:36:27;99871.50;;;16.38;100.00
33506;BME280;19843;51.040;13.782;2023-05-23T04:38:56;99882.63;;;16.83;100.00
33506;BME280;19843;51.040;13.782;2023-05-23T04:41:24;99874.31;;;17.22;100.00
33506;BME280;19843;51.040;13.782;2023-05-23T04:43:52;99879.16;;;17.32;100.00
33506;BME280;19843;51.040;13.782;2023-05-23T04:46:20;99875.63;;;17.57;100.00
33506;BME280;19843;51.040;13.782;2023-05-23T04:48:52;99887.72;;;17.57;100.00
33506;BME280;19843;51.040;13.782;2023-05-23T04:51:20;99882.50;;;17.77;100.00
33506;BME280;19843;51.040;13.782;2023-05-23T04:53:48;99884.53;;;17.73;100.00
33506;BME280;19843;51.040;13.782;2023-05-23T04:56:17;99886.94;;;17.78;100.00
33506;BME280;19843;51.040;13.782;2023-05-23T04:58:47;99888.56;;;17.83;100.00
33506;BME280;19843;51.040;13.782;2023-05-23T05:01:14;99891.38;;;17.83;100.00
33506;BME280;19843;51.040;13.782;2023-05-23T05:03:42;99895.44;;;17.85;100.00
33506;BME280;19843;51.040;13.782;2023-05-23T05:06:09;99888.59;;;17.90;100.00
33506;BME280;19843;51.040;13.782;2023-05-23T05:08:37;99880.50;;;17.96;100.00
33506;BME280;19843;51.040;13.782;2023-05-23T05:11:05;99883.72;;;17.87;100.00
33506;BME280;19843;51.040;13.782;2023-05-23T05:13:34;99881.69;;;18.12;100.00
33506;BME280;19843;51.040;13.782;2023-05-23T05:16:02;99896.63;;;18.31;100.00
33506;BME280;19843;51.040;13.782;2023-05-23T05:18:29;99871.16;;;18.45;100.00
33506;BME280;19843;51.040;13.782;2023-05-23T05:20:57;99885.66;;;18.61;99.57
33506;BME280;19843;51.040;13.782;2023-05-23T05:23:25;99875.53;;;18.85;96.81
33506;BME280;19843;51.040;13.782;2023-05-23T05:25:54;99889.41;;;19.39;93.93
33506;BME280;19843;51.040;13.782;2023-05-23T05:28:22;99880.59;;;19.89;91.79
33506;BME280;19843;51.040;13.782;2023-05-23T05:30:51;99884.38;;;20.20;87.89
33506;BME280;19843;51.040;13.782;2023-05-23T05:33:19;99889.16;;;19.78;91.80
33506;BME280;19843;51.040;13.782;2023-05-23T05:35:49;99889.03;;;19.33;89.47
33506;BME280;19843;51.040;13.782;2023-05-23T05:38:17;99895.75;;;18.77;96.95
33506;BME280;19843;51.040;13.782;2023-05-23T05:40:45;99888.06;;;18.77;95.75
33506;BME280;19843;51.040;13.782;2023-05-23T05:43:12;99886.00;;;18.88;94.49
33506;BME280;19843;51.040;13.782;2023-05-23T05:45:40;99881.19;;;18.85;96.74
33506;BME280;19843;51.040;13.782;2023-05-23T05:48:09;99883.63;;;18.65;100.00
33506;BME280;19843;51.040;13.782;2023-05-23T05:50:37;99886.00;;;18.92;97.89
33506;BME280;19843;51.040;13.782;2023-05-23T05:53:05;99883.28;;;18.35;98.76
33506;BME280;19843;51.040;13.782;2023-05-23T05:55:34;99896.19;;;18.39;100.00
33506;BME280;19843;51.040;13.782;2023-05-23T05:58:02;99890.91;;;18.74;100.00
33506;BME280;19843;51.040;13.782;2023-05-23T06:00:30;99892.97;;;18.45;99.76
33506;BME280;19843;51.040;13.782;2023-05-23T06:02:58;99901.06;;;18.21;100.00
33506;BME280;19843;51.040;13.782;2023-05-23T06:05:27;99899.06;;;17.97;100.00
33506;BME280;19843;51.040;13.782;2023-05-23T06:07:54;99896.63;;;18.31;100.00
33506;BME280;19843;51.040;13.782;2023-05-23T06:10:22;99901.00;;;18.60;100.00
33506;BME280;19843;51.040;13.782;2023-05-23T06:12:59;99900.59;;;18.62;98.16
33506;BME280;19843;51.040;13.782;2023-05-23T06:15:36;99902.34;;;19.40;98.22
33506;BME280;19843;51.040;13.782;2023-05-23T06:18:03;99904.81;;;19.31;96.74
33506;BME280;19843;51.040;13.782;2023-05-23T06:20:32;99905.31;;;19.11;98.21
33506;BME280;19843;51.040;13.782;2023-05-23T06:22:59;99907.88;;;18.66;99.67
33506;BME280;19843;51.040;13.782;2023-05-23T06:25:30;99897.69;;;18.94;100.00
33506;BME280;19843;51.040;13.782;2023-05-23T06:27:58;99921.25;;;18.02;100.00
33506;BME280;19843;51.040;13.782;2023-05-23T06:30:26;99910.28;;;18.75;100.00
33506;BME280;19843;51.040;13.782;2023-05-23T06:32:54;99914.75;;;18.73;100.00
33506;BME280;19843;51.040;13.782;2023-05-23T06:35:22;99911.88;;;18.65;99.07
33506;BME280;19843;51.040;13.782;2023-05-23T06:37:51;99926.50;;;17.96;100.00
33506;BME280;19843;51.040;13.782;2023-05-23T06:40:18;99926.47;;;18.17;100.00
33506;BME280;19843;51.040;13.782;2023-05-23T06:42:46;99920.41;;;18.62;100.00
33506;BME280;19843;51.040;13.782;2023-05-23T06:45:13;99924.81;;;18.74;100.00
33506;BME280;19843;51.040;13.782;2023-05-23T06:47:42;99932.50;;;18.66;99.73
33506;BME280;19843;51.040;13.782;2023-05-23T06:50:11;99927.69;;;18.38;97.70
33506;BME280;19843;51.040;13.782;2023-05-23T06:52:38;99928.88;;;18.73;98.82
33506;BME280;19843;51.040;13.782;2023-05-23T06:55:09;99938.56;;;18.32;99.18
33506;BME280;19843;51.040;13.782;2023-05-23T06:57:39;99941.41;;;18.32;97.90
33506;BME280;19843;51.040;13.782;2023-05-23T07:00:08;99943.00;;;18.73;99.23
33506;BME280;19843;51.040;13.782;2023-05-23T07:02:35;99929.53;;;19.23;95.78
33506;BME280;19843;51.040;13.782;2023-05-23T07:05:03;99937.75;;;18.75;96.06
33506;BME280;19843;51.040;13.782;2023-05-23T07:07:31;99932.72;;;19.25;91.40
33506;BME280;19843;51.040;13.782;2023-05-23T07:09:58;99930.19;;;20.11;88.85
33506;BME280;19843;51.040;13.782;2023-05-23T07:12:27;99930.78;;;19.88;89.73
33506;BME280;19843;51.040;13.782;2023-05-23T07:14:55;99932.31;;;20.45;85.69
33506;BME280;19843;51.040;13.782;2023-05-23T07:17:22;99934.13;;;20.69;84.79
33506;BME280;19843;51.040;13.782;2023-05-23T07:19:50;99934.19;;;19.65;85.90
33506;BME280;19843;51.040;13.782;2023-05-23T07:22:18;99933.56;;;19.95;88.79
33506;BME280;19843;51.040;13.782;2023-05-23T07:24:45;99933.59;;;19.88;88.26
33506;BME280;19843;51.040;13.782;2023-05-23T07:27:13;99934.19;;;19.62;89.03
33506;BME280;19843;51.040;13.782;2023-05-23T07:29:41;99947.38;;;19.86;86.41
33506;BME280;19843;51.040;13.782;2023-05-23T07:32:09;99939.84;;;19.62;87.50
33506;BME280;19843;51.040;13.782;2023-05-23T07:34:36;99950.31;;;19.68;83.67
33506;BME280;19843;51.040;13.782;2023-05-23T07:37:04;99944.34;;;19.52;83.35
33506;BME280;19843;51.040;13.782;2023-05-23T07:39:32;99949.34;;;19.19;86.80
33506;BME280;19843;51.040;13.782;2023-05-23T07:41:59;99934.50;;;18.90;85.93
33506;BME280;19843;51.040;13.782;2023-05-23T07:44:27;99945.69;;;19.19;82.55
33506;BME280;19843;51.040;13.782;2023-05-23T07:46:56;99940.84;;;19.16;86.55
33506;BME280;19843;51.040;13.782;2023-05-23T07:49:23;99940.56;;;19.80;81.53
33506;BME280;19843;51.040;13.782;2023-05-23T07:51:51;99939.94;;;19.37;85.79
33506;BME280;19843;51.040;13.782;2023-05-23T07:54:19;99946.88;;;19.29;86.88
33506;BME280;19843;51.040;13.782;2023-05-23T07:56:46;99948.78;;;20.16;80.45
33506;BME280;19843;51.040;13.782;2023-05-23T07:59:14;99945.09;;;20.71;76.66
33506;BME280;19843;51.040;13.782;2023-05-23T08:01:42;99930.25;;;20.56;77.14
33506;BME280;19843;51.040;13.782;2023-05-23T08:04:11;99942.69;;;20.66;77.83
33506;BME280;19843;51.040;13.782;2023-05-23T08:06:39;99938.44;;;20.47;79.35
33506;BME280;19843;51.040;13.782;2023-05-23T08:09:17;99943.63;;;20.56;79.38
33506;BME280;19843;51.040;13.782;2023-05-23T08:11:44;99934.56;;;20.23;81.79
33506;BME280;19843;51.040;13.782;2023-05-23T08:14:12;99943.75;;;20.38;80.53
33506;BME280;19843;51.040;13.782;2023-05-23T08:16:39;99936.38;;;20.51;79.76
33506;BME280;19843;51.040;13.782;2023-05-23T08:19:07;99939.97;;;20.03;77.83
33506;BME280;19843;51.040;13.782;2023-05-23T08:21:36;99943.91;;;20.65;76.63
33506;BME280;19843;51.040;13.782;2023-05-23T08:24:04;99942.31;;;20.15;77.83
33506;BME280;19843;51.040;13.782;2023-05-23T08:26:31;99943.09;;;20.19;76.13
33506;BME280;19843;51.040;13.782;2023-05-23T08:29:00;99938.06;;;20.41;74.67
33506;BME280;19843;51.040;13.782;2023-05-23T08:31:29;99944.13;;;20.40;75.68
33506;BME280;19843;51.040;13.782;2023-05-23T08:33:56;99950.81;;;20.15;76.30
33506;BME280;19843;51.040;13.782;2023-05-23T08:36:24;99956.78;;;20.28;73.15
33506;BME280;19843;51.040;13.782;2023-05-23T08:38:53;99944.47;;;20.45;74.62
33506;BME280;19843;51.040;13.782;2023-05-23T08:41:22;99961.66;;;20.73;76.04
33506;BME280;19843;51.040;13.782;2023-05-23T08:43:50;99961.16;;;20.36;74.14
33506;BME280;19843;51.040;13.782;2023-05-23T08:46:18;99959.06;;;20.48;76.35
33506;BME280;19843;51.040;13.782;2023-05-23T08:48:51;99964.59;;;21.03;73.19
33506;BME280;19843;51.040;13.782;2023-05-23T08:51:21;99969.44;;;21.40;70.09
33506;BME280;19843;51.040;13.782;2023-05-23T08:53:48;99962.41;;;21.18;71.45
33506;BME280;19843;51.040;13.782;2023-05-23T08:56:20;99963.97;;;20.85;70.59
33506;BME280;19843;51.040;13.782;2023-05-23T08:58:49;99969.50;;;20.58;71.70
33506;BME280;19843;51.040;13.782;2023-05-23T09:01:19;99974.22;;;20.75;71.85
33506;BME280;19843;51.040;13.782;2023-05-23T09:03:47;99972.28;;;21.03;71.53
33506;BME280;19843;51.040;13.782;2023-05-23T09:06:15;99976.16;;;20.82;72.37
33506;BME280;19843;51.040;13.782;2023-05-23T09:08:44;99981.41;;;21.21;70.13
33506;BME280;19843;51.040;13.782;2023-05-23T09:11:12;99970.38;;;20.92;70.81
33506;BME280;19843;51.040;13.782;2023-05-23T09:13:41;99973.94;;;21.38;71.48
33506;BME280;19843;51.040;13.782;2023-05-23T09:16:09;99984.66;;;21.19;72.04
33506;BME280;19843;51.040;13.782;2023-05-23T09:18:39;99981.72;;;21.27;70.42
33506;BME280;19843;51.040;13.782;2023-05-23T09:21:08;99989.59;;;22.07;68.21
33506;BME280;19843;51.040;13.782;2023-05-23T09:23:37;99989.16;;;21.17;70.42
33506;BME280;19843;51.040;13.782;2023-05-23T09:26:07;99985.50;;;21.16;72.66
33506;BME280;19843;51.040;13.782;2023-05-23T09:28:37;99986.97;;;20.53;74.78
33506;BME280;19843;51.040;13.782;2023-05-23T09:31:08;99989.88;;;19.83;77.23
33506;BME280;19843;51.040;13.782;2023-05-23T09:33:38;99996.72;;;20.44;75.36
33506;BME280;19843;51.040;13.782;2023-05-23T09:36:06;99994.59;;;20.59;76.36
33506;BME280;19843;51.040;13.782;2023-05-23T09:38:37;99988.13;;;20.03;77.31
33506;BME280;19843;51.040;13.782;2023-05-23T09:41:04;99998.56;;;19.36;80.63
33506;BME280;19843;51.040;13.782;2023-05-23T09:43:32;99999.78;;;19.39;81.40
33506;BME280;19843;51.040;13.782;2023-05-23T09:46:00;100003.94;;;19.02;82.28
33506;BME280;19843;51.040;13.782;2023-05-23T09:48:29;99993.81;;;19.19;84.12
33506;BME280;19843;51.040;13.782;2023-05-23T09:50:57;100004.31;;;19.18;82.09
33506;BME280;19843;51.040;13.782;2023-05-23T09:53:28;100012.97;;;19.78;79.55
33506;BME280;19843;51.040;13.782;2023-05-23T09:55:57;100017.63;;;19.25;80.13
33506;BME280;19843;51.040;13.782;2023-05-23T09:58:26;100018.47;;;19.18;82.35
33506;BME280;19843;51.040;13.782;2023-05-23T10:00:54;100024.41;;;19.49;81.57
33506;BME280;19843;51.040;13.782;2023-05-23T10:03:26;100023.41;;;19.95;79.73
33506;BME280;19843;51.040;13.782;2023-05-23T10:06:01;100022.75;;;19.55;80.44
33506;BME280;19843;51.040;13.782;2023-05-23T10:08:38;100029.34;;;19.24;82.38
33506;BME280;19843;51.040;13.782;2023-05-23T10:14:16;100037.50;;;19.00;83.02
33506;BME280;19843;51.040;13.782;2023-05-23T10:16:52;100031.41;;;19.05;82.52
33506;BME280;19843;51.040;13.782;2023-05-23T10:19:23;100043.88;;;19.33;79.92
33506;BME280;19843;51.040;13.782;2023-05-23T10:21:57;100037.28;;;20.41;74.52
33506;BME280;19843;51.040;13.782;2023-05-23T10:24:27;100034.00;;;19.80;74.94
33506;BME280;19843;51.040;13.782;2023-05-23T10:26:55;100043.47;;;19.31;75.31
33506;BME280;19843;51.040;13.782;2023-05-23T10:29:24;100042.97;;;20.38;71.14
33506;BME280;19843;51.040;13.782;2023-05-23T10:31:53;100047.88;;;20.27;69.55
33506;BME280;19843;51.040;13.782;2023-05-23T10:34:25;100049.88;;;20.33;69.09
33506;BME280;19843;51.040;13.782;2023-05-23T10:36:59;100043.25;;;20.54;68.90
33506;BME280;19843;51.040;13.782;2023-05-23T10:39:35;100049.97;;;21.57;66.11
33506;BME280;19843;51.040;13.782;2023-05-23T10:42:10;100045.34;;;20.95;64.46
33506;BME280;19843;51.040;13.782;2023-05-23T10:44:42;100038.78;;;21.73;64.21
33506;BME280;19843;51.040;13.782;2023-05-23T10:47:10;100048.44;;;21.08;65.93
33506;BME280;19843;51.040;13.782;2023-05-23T10:49:39;100052.13;;;21.46;65.17
33506;BME280;19843;51.040;13.782;2023-05-23T10:52:11;100056.66;;;20.46;68.57
33506;BME280;19843;51.040;13.782;2023-05-23T10:54:43;100061.13;;;19.78;70.68
33506;BME280;19843;51.040;13.782;2023-05-23T10:57:14;100060.69;;;19.86;71.78
33506;BME280;19843;51.040;13.782;2023-05-23T10:59:44;100058.75;;;19.58;70.18
33506;BME280;19843;51.040;13.782;2023-05-23T11:02:13;100069.19;;;19.83;70.67
33506;BME280;19843;51.040;13.782;2023-05-23T11:04:41;100071.91;;;20.70;67.11
33506;BME280;19843;51.040;13.782;2023-05-23T11:07:28;100071.13;;;20.00;70.11
33506;BME280;19843;51.040;13.782;2023-05-23T11:10:03;100067.56;;;19.82;69.72
33506;BME280;19843;51.040;13.782;2023-05-23T11:13:05;100065.31;;;20.81;67.50
33506;BME280;19843;51.040;13.782;2023-05-23T11:15:40;100066.78;;;20.44;67.97
33506;BME280;19843;51.040;13.782;2023-05-23T11:18:18;100064.84;;;20.89;65.24
33506;BME280;19843;51.040;13.782;2023-05-23T11:20:46;100065.81;;;20.68;65.88
33506;BME280;19843;51.040;13.782;2023-05-23T11:23:20;100065.19;;;20.95;65.39
33506;BME280;19843;51.040;13.782;2023-05-23T11:25:49;100066.78;;;20.44;66.86
33506;BME280;19843;51.040;13.782;2023-05-23T11:28:17;100058.28;;;20.51;66.18
33506;BME280;19843;51.040;13.782;2023-05-23T11:30:47;100057.50;;;20.40;68.81
33506;BME280;19843;51.040;13.782;2023-05-23T11:33:16;100054.59;;;20.54;66.59
33506;BME280;19843;51.040;13.782;2023-05-23T11:35:45;100061.91;;;21.41;67.72
33506;BME280;19843;51.040;13.782;2023-05-23T11:38:13;100055.97;;;20.84;66.68
33506;BME280;19843;51.040;13.782;2023-05-23T11:40:44;100059.19;;;20.89;67.31
33506;BME280;19843;51.040;13.782;2023-05-23T11:43:13;100062.44;;;21.63;64.73
33506;BME280;19843;51.040;13.782;2023-05-23T11:45:41;100068.91;;;20.33;65.79
33506;BME280;19843;51.040;13.782;2023-05-23T11:48:10;100059.50;;;20.46;66.98
33506;BME280;19843;51.040;13.782;2023-05-23T11:50:43;100066.09;;;20.26;65.22
33506;BME280;19843;51.040;13.782;2023-05-23T11:53:15;100059.34;;;21.51;64.17
33506;BME280;19843;51.040;13.782;2023-05-23T11:55:51;100064.13;;;20.75;66.21
33506;BME280;19843;51.040;13.782;2023-05-23T11:58:24;100063.69;;;20.28;67.57
33506;BME280;19843;51.040;13.782;2023-05-23T12:00:57;100062.06;;;20.27;68.72
33506;BME280;19843;51.040;13.782;2023-05-23T12:03:25;100072.75;;;19.98;69.04
33506;BME280;19843;51.040;13.782;2023-05-23T12:05:53;100066.47;;;19.61;70.21
33506;BME280;19843;51.040;13.782;2023-05-23T12:08:21;100071.50;;;20.09;68.91
33506;BME280;19843;51.040;13.782;2023-05-23T12:10:51;100067.50;;;20.00;68.86
33506;BME280;19843;51.040;13.782;2023-05-23T12:13:22;100061.34;;;20.71;67.11
33506;BME280;19843;51.040;13.782;2023-05-23T12:15:52;100056.41;;;21.23;64.60
33506;BME280;19843;51.040;13.782;2023-05-23T12:18:23;100062.41;;;21.67;64.70
33506;BME280;19843;51.040;13.782;2023-05-23T12:20:50;100066.97;;;20.75;64.74
33506;BME280;19843;51.040;13.782;2023-05-23T12:23:19;100053.75;;;21.02;64.31
33506;BME280;19843;51.040;13.782;2023-05-23T12:25:51;100064.13;;;21.91;62.83
33506;BME280;19843;51.040;13.782;2023-05-23T12:28:18;100057.97;;;22.27;58.65
33506;BME280;19843;51.040;13.782;2023-05-23T12:30:46;100053.75;;;21.78;61.69
33506;BME280;19843;51.040;13.782;2023-05-23T12:33:17;100056.13;;;22.40;59.54
33506;BME280;19843;51.040;13.782;2023-05-23T12:35:44;100052.59;;;22.33;59.27
33506;BME280;19843;51.040;13.782;2023-05-23T12:38:14;100064.97;;;21.58;63.06
33506;BME280;19843;51.040;13.782;2023-05-23T12:40:42;100053.91;;;20.88;62.29
33506;BME280;19843;51.040;13.782;2023-05-23T12:43:11;100068.25;;;21.11;62.60
33506;BME280;19843;51.040;13.782;2023-05-23T12:45:41;100077.53;;;20.11;67.07
33506;BME280;19843;51.040;13.782;2023-05-23T12:48:09;100061.50;;;20.46;67.52
33506;BME280;19843;51.040;13.782;2023-05-23T12:50:38;100071.63;;;20.51;67.80
33506;BME280;19843;51.040;13.782;2023-05-23T12:53:08;100074.94;;;19.61;70.10
33506;BME280;19843;51.040;13.782;2023-05-23T12:55:36;100078.97;;;19.60;68.55